sensor_id;sensor_type;location;lat;lon;timestamp;temperature;humidity
12911;DHT22;6523;49.758;6.120;2023-06-10T00:01:37;15.60;99.90
12911;DHT22;6523;49.758;6.120;2023-06-10T00:04:03;15.50;99.90
12911;DHT22;6523;49.758;6.120;2023-06-10T00:06:29;15.60;99.90
12911;DHT22;6523;49.758;6.120;2023-06-10T00:09:04;15.50;99.90
12911;DHT22;6523;49.758;6.120;2023-06-10T00:11:31;15.40;99.90
12911;DHT22;6523;49.758;6.120;2023-06-10T00:13:58;15.40;99.90
12911;DHT22;6523;49.758;6.120;2023-06-10T00:16:23;15.40;99.90
12911;DHT22;6523;49.758;6.120;2023-06-10T00:18:49;15.30;99.90
12911;DHT22;6523;49.758;6.120;2023-06-10T00:21:16;15.50;99.90
12911;DHT22;6523;49.758;6.120;2023-06-10T00:23:42;15.40;99.90
12911;DHT22;6523;49.758;6.120;2023-06-10T00:26:09;15.50;99.90
12911;DHT22;6523;49.758;6.120;2023-06-10T00:28:35;15.50;99.90
12911;DHT22;6523;49.758;6.120;2023-06-10T00:31:01;15.60;99.90
12911;DHT22;6523;49.758;6.120;2023-06-10T00:33:26;15.40;99.90
12911;DHT22;6523;49.758;6.120;2023-06-10T00:35:52;15.30;99.90
12911;DHT22;6523;49.758;6.120;2023-06-10T00:38:17;15.40;99.90
12911;DHT22;6523;49.758;6.120;2023-06-10T00:40:43;15.30;99.90
12911;DHT22;6523;49.758;6.120;2023-06-10T00:43:09;15.50;99.90
12911;DHT22;6523;49.758;6.120;2023-06-10T00:45:34;15.50;99.90
12911;DHT22;6523;49.758;6.120;2023-06-10T00:48:01;15.50;99.90
12911;DHT22;6523;49.758;6.120;2023-06-10T00:50:27;15.70;99.90
12911;DHT22;6523;49.758;6.120;2023-06-10T00:52:56;15.50;99.90
12911;DHT22;6523;49.758;6.120;2023-06-10T00:55:22;15.50;99.90
12911;DHT22;6523;49.758;6.120;2023-06-10T00:57:49;15.60;99.90
12911;DHT22;6523;49.758;6.120;2023-06-10T01:00:15;15.70;99.90
12911;DHT22;6523;49.758;6.120;2023-06-10T01:02:41;15.60;99.90
12911;DHT22;6523;49.758;6.120;2023-06-10T01:05:08;15.40;99.90
12911;DHT22;6523;49.758;6.120;2023-06-10T01:07:46;15.40;99.90
12911;DHT22;6523;49.758;6.120;2023-06-10T01:10:33;15.20;99.90
12911;DHT22;6523;49.758;6.120;2023-06-10T01:13:02;15.20;99.90
12911;DHT22;6523;49.758;6.120;2023-06-10T01:15:31;15.10;99.90
12911;DHT22;6523;49.758;6.120;2023-06-10T01:17:59;15.10;99.90
12911;DHT22;6523;49.758;6.120;2023-06-10T01:20:29;14.90;99.90
12911;DHT22;6523;49.758;6.120;2023-06-10T01:22:58;15.00;99.90
12911;DHT22;6523;49.758;6.120;2023-06-10T01:25:25;15.10;99.90
12911;DHT22;6523;49.758;6.120;2023-06-10T01:33:35;14.80;99.90
12911;DHT22;6523;49.758;6.120;2023-06-10T01:36:02;14.80;99.90
12911;DHT22;6523;49.758;6.120;2023-06-10T01:38:32;15.00;99.90
12911;DHT22;6523;49.758;6.120;2023-06-10T01:40:59;14.90;99.90
12911;DHT22;6523;49.758;6.120;2023-06-10T01:43:25;14.90;99.90
12911;DHT22;6523;49.758;6.120;2023-06-10T01:45:50;14.80;99.90
12911;DHT22;6523;49.758;6.120;2023-06-10T01:48:16;14.70;99.90
12911;DHT22;6523;49.758;6.120;2023-06-10T01:50:42;14.60;99.90
12911;DHT22;6523;49.758;6.120;2023-06-10T01:53:09;14.60;99.90
12911;DHT22;6523;49.758;6.120;2023-06-10T01:55:34;14.50;99.90
12911;DHT22;6523;49.758;6.120;2023-06-10T01:58:00;14.60;99.90
12911;DHT22;6523;49.758;6.120;2023-06-10T02:00:25;14.60;99.90
12911;DHT22;6523;49.758;6.120;2023-06-10T02:02:51;14.80;99.90
12911;DHT22;6523;49.758;6.120;2023-06-10T02:05:17;14.50;99.90
12911;DHT22;6523;49.758;6.120;2023-06-10T02:07:42;14.40;99.90
12911;DHT22;6523;49.758;6.120;2023-06-10T02:10:08;14.50;99.90
12911;DHT22;6523;49.758;6.120;2023-06-10T02:12:34;14.50;99.90
12911;DHT22;6523;49.758;6.120;2023-06-10T02:14:59;14.40;99.90
12911;DHT22;6523;49.758;6.120;2023-06-10T02:17:25;14.40;99.90
12911;DHT22;6523;49.758;6.120;2023-06-10T02:19:51;14.50;99.90
12911;DHT22;6523;49.758;6.120;2023-06-10T02:22:21;14.40;99.90
12911;DHT22;6523;49.758;6.120;2023-06-10T02:24:46;14.50;99.90
12911;DHT22;6523;49.758;6.120;2023-06-10T02:27:12;14.30;99.90
12911;DHT22;6523;49.758;6.120;2023-06-10T02:29:37;14.30;99.90
12911;DHT22;6523;49.758;6.120;2023-06-10T02:32:03;14.20;99.90
12911;DHT22;6523;49.758;6.120;2023-06-10T02:34:29;14.40;99.90
12911;DHT22;6523;49.758;6.120;2023-06-10T02:36:55;14.30;99.90
12911;DHT22;6523;49.758;6.120;2023-06-10T02:39:21;14.20;99.90
12911;DHT22;6523;49.758;6.120;2023-06-10T02:41:47;14.20;99.90
12911;DHT22;6523;49.758;6.120;2023-06-10T02:44:13;14.00;99.90
12911;DHT22;6523;49.758;6.120;2023-06-10T02:46:38;13.90;99.90
12911;DHT22;6523;49.758;6.120;2023-06-10T02:49:04;14.00;99.90
12911;DHT22;6523;49.758;6.120;2023-06-10T02:51:29;13.90;99.90
12911;DHT22;6523;49.758;6.120;2023-06-10T02:53:55;14.10;99.90
12911;DHT22;6523;49.758;6.120;2023-06-10T02:56:20;13.90;99.90
12911;DHT22;6523;49.758;6.120;2023-06-10T02:58:47;13.90;99.90
12911;DHT22;6523;49.758;6.120;2023-06-10T03:01:13;13.90;99.90
12911;DHT22;6523;49.758;6.120;2023-06-10T03:03:39;13.90;99.90
12911;DHT22;6523;49.758;6.120;2023-06-10T03:06:09;13.90;99.90
12911;DHT22;6523;49.758;6.120;2023-06-10T03:08:36;13.70;99.90
12911;DHT22;6523;49.758;6.120;2023-06-10T03:11:01;14.00;99.90
12911;DHT22;6523;49.758;6.120;2023-06-10T03:13:27;14.00;99.90
12911;DHT22;6523;49.758;6.120;2023-06-10T03:15:53;13.80;99.90
12911;DHT22;6523;49.758;6.120;2023-06-10T03:18:18;13.80;99.90
12911;DHT22;6523;49.758;6.120;2023-06-10T03:20:44;13.60;99.90
12911;DHT22;6523;49.758;6.120;2023-06-10T03:23:10;13.60;99.90
12911;DHT22;6523;49.758;6.120;2023-06-10T03:25:35;13.70;99.90
12911;DHT22;6523;49.758;6.120;2023-06-10T03:28:01;13.50;99.90
12911;DHT22;6523;49.758;6.120;2023-06-10T03:30:27;13.60;99.90
12911;DHT22;6523;49.758;6.120;2023-06-10T03:32:53;13.50;99.90
12911;DHT22;6523;49.758;6.120;2023-06-10T03:35:19;13.40;99.90
12911;DHT22;6523;49.758;6.120;2023-06-10T03:37:44;13.40;99.90
12911;DHT22;6523;49.758;6.120;2023-06-10T03:40:10;13.50;99.90
12911;DHT22;6523;49.758;6.120;2023-06-10T03:42:36;13.30;99.90
12911;DHT22;6523;49.758;6.120;2023-06-10T03:45:03;13.30;99.90
12911;DHT22;6523;49.758;6.120;2023-06-10T03:47:38;13.40;99.90
12911;DHT22;6523;49.758;6.120;2023-06-10T03:50:06;13.50;99.90
12911;DHT22;6523;49.758;6.120;2023-06-10T03:52:32;13.50;99.90
12911;DHT22;6523;49.758;6.120;2023-06-10T03:54:57;13.30;99.90
12911;DHT22;6523;49.758;6.120;2023-06-10T03:57:23;13.30;99.90
12911;DHT22;6523;49.758;6.120;2023-06-10T03:59:51;13.50;99.90
12911;DHT22;6523;49.758;6.120;2023-06-10T04:02:17;13.50;99.90
12911;DHT22;6523;49.758;6.120;2023-06-10T04:04:43;13.60;99.90
12911;DHT22;6523;49.758;6.120;2023-06-10T04:07:08;13.40;99.90
12911;DHT22;6523;49.758;6.120;2023-06-10T04:09:34;13.50;99.90
12911;DHT22;6523;49.758;6.120;2023-06-10T04:12:01;13.40;99.90
12911;DHT22;6523;49.758;6.120;2023-06-10T04:14:27;13.30;99.90
12911;DHT22;6523;49.758;6.120;2023-06-10T04:16:53;13.50;99.90
12911;DHT22;6523;49.758;6.120;2023-06-10T04:19:18;13.60;99.90
12911;DHT22;6523;49.758;6.120;2023-06-10T04:21:44;13.60;99.90
12911;DHT22;6523;49.758;6.120;2023-06-10T04:24:09;13.60;99.90
12911;DHT22;6523;49.758;6.120;2023-06-10T04:26:35;13.70;99.90
12911;DHT22;6523;49.758;6.120;2023-06-10T04:29:01;13.80;99.90
12911;DHT22;6523;49.758;6.120;2023-06-10T04:31:26;13.90;99.90
12911;DHT22;6523;49.758;6.120;2023-06-10T04:33:53;13.90;99.90
12911;DHT22;6523;49.758;6.120;2023-06-10T04:36:18;13.90;99.90
12911;DHT22;6523;49.758;6.120;2023-06-10T04:38:44;14.00;99.90
12911;DHT22;6523;49.758;6.120;2023-06-10T04:41:10;14.10;99.90
12911;DHT22;6523;49.758;6.120;2023-06-10T04:43:35;14.10;99.90
12911;DHT22;6523;49.758;6.120;2023-06-10T04:46:01;14.10;99.90
12911;DHT22;6523;49.758;6.120;2023-06-10T04:48:27;14.30;99.90
12911;DHT22;6523;49.758;6.120;2023-06-10T04:50:52;14.40;99.90
12911;DHT22;6523;49.758;6.120;2023-06-10T04:53:18;14.50;99.90
12911;DHT22;6523;49.758;6.120;2023-06-10T04:55:43;14.60;99.90
12911;DHT22;6523;49.758;6.120;2023-06-10T04:58:09;14.70;99.90
12911;DHT22;6523;49.758;6.120;2023-06-10T05:00:34;14.80;99.90
12911;DHT22;6523;49.758;6.120;2023-06-10T05:03:00;14.80;99.90
12911;DHT22;6523;49.758;6.120;2023-06-10T05:05:26;14.90;99.90
12911;DHT22;6523;49.758;6.120;2023-06-10T05:07:51;15.00;99.90
12911;DHT22;6523;49.758;6.120;2023-06-10T05:10:17;15.10;99.90
12911;DHT22;6523;49.758;6.120;2023-06-10T05:12:42;15.20;99.90
12911;DHT22;6523;49.758;6.120;2023-06-10T05:15:08;15.30;99.90
12911;DHT22;6523;49.758;6.120;2023-06-10T05:17:34;15.30;99.90
12911;DHT22;6523;49.758;6.120;2023-06-10T05:20:03;15.40;99.90
12911;DHT22;6523;49.758;6.120;2023-06-10T05:22:29;15.40;99.90
12911;DHT22;6523;49.758;6.120;2023-06-10T05:24:55;15.40;99.90
12911;DHT22;6523;49.758;6.120;2023-06-10T05:27:21;15.50;99.90
12911;DHT22;6523;49.758;6.120;2023-06-10T05:29:47;15.60;99.90
12911;DHT22;6523;49.758;6.120;2023-06-10T05:32:13;15.70;99.90
12911;DHT22;6523;49.758;6.120;2023-06-10T05:34:38;15.80;99.90
12911;DHT22;6523;49.758;6.120;2023-06-10T05:37:05;15.80;99.90
12911;DHT22;6523;49.758;6.120;2023-06-10T05:39:30;15.90;99.90
12911;DHT22;6523;49.758;6.120;2023-06-10T05:41:56;15.90;99.90
12911;DHT22;6523;49.758;6.120;2023-06-10T05:44:24;16.00;99.90
12911;DHT22;6523;49.758;6.120;2023-06-10T05:46:50;16.30;99.90
12911;DHT22;6523;49.758;6.120;2023-06-10T05:49:15;16.40;99.90
12911;DHT22;6523;49.758;6.120;2023-06-10T05:51:41;16.50;99.90
12911;DHT22;6523;49.758;6.120;2023-06-10T05:54:06;16.70;99.90
12911;DHT22;6523;49.758;6.120;2023-06-10T05:56:32;16.70;99.90
12911;DHT22;6523;49.758;6.120;2023-06-10T05:58:57;16.90;99.90
12911;DHT22;6523;49.758;6.120;2023-06-10T06:01:23;17.00;99.90
12911;DHT22;6523;49.758;6.120;2023-06-10T06:03:48;17.40;99.90
12911;DHT22;6523;49.758;6.120;2023-06-10T06:06:14;17.50;99.90
12911;DHT22;6523;49.758;6.120;2023-06-10T06:08:40;17.50;99.90
12911;DHT22;6523;49.758;6.120;2023-06-10T06:11:05;17.70;99.90
12911;DHT22;6523;49.758;6.120;2023-06-10T06:13:31;17.90;99.90
12911;DHT22;6523;49.758;6.120;2023-06-10T06:15:56;18.40;99.90
12911;DHT22;6523;49.758;6.120;2023-06-10T06:18:22;18.50;99.90
12911;DHT22;6523;49.758;6.120;2023-06-10T06:20:47;18.70;99.90
12911;DHT22;6523;49.758;6.120;2023-06-10T06:23:13;18.70;99.90
12911;DHT22;6523;49.758;6.120;2023-06-10T06:25:38;18.80;99.90
12911;DHT22;6523;49.758;6.120;2023-06-10T06:28:06;18.90;99.90
12911;DHT22;6523;49.758;6.120;2023-06-10T06:30:32;19.10;99.90
12911;DHT22;6523;49.758;6.120;2023-06-10T06:32:58;19.20;99.90
12911;DHT22;6523;49.758;6.120;2023-06-10T06:35:23;19.40;99.90
12911;DHT22;6523;49.758;6.120;2023-06-10T06:37:49;19.50;99.90
12911;DHT22;6523;49.758;6.120;2023-06-10T06:42:40;19.70;99.90
12911;DHT22;6523;49.758;6.120;2023-06-10T06:45:06;19.80;99.90
12911;DHT22;6523;49.758;6.120;2023-06-10T06:47:32;19.90;99.90
12911;DHT22;6523;49.758;6.120;2023-06-10T06:49:57;20.20;99.90
12911;DHT22;6523;49.758;6.120;2023-06-10T06:52:23;20.30;99.90
12911;DHT22;6523;49.758;6.120;2023-06-10T06:54:49;20.40;99.90
12911;DHT22;6523;49.758;6.120;2023-06-10T06:57:15;20.50;99.90
12911;DHT22;6523;49.758;6.120;2023-06-10T06:59:40;20.60;99.90
12911;DHT22;6523;49.758;6.120;2023-06-10T07:02:06;20.70;99.90
12911;DHT22;6523;49.758;6.120;2023-06-10T07:04:32;20.80;99.90
12911;DHT22;6523;49.758;6.120;2023-06-10T07:06:57;20.90;99.90
12911;DHT22;6523;49.758;6.120;2023-06-10T07:09:23;20.90;99.90
12911;DHT22;6523;49.758;6.120;2023-06-10T07:11:48;21.10;99.90
12911;DHT22;6523;49.758;6.120;2023-06-10T07:14:14;21.30;99.90
12911;DHT22;6523;49.758;6.120;2023-06-10T07:16:39;21.50;99.90
12911;DHT22;6523;49.758;6.120;2023-06-10T07:19:05;21.50;99.90
12911;DHT22;6523;49.758;6.120;2023-06-10T07:21:30;21.60;99.90
12911;DHT22;6523;49.758;6.120;2023-06-10T07:23:58;21.70;99.90
12911;DHT22;6523;49.758;6.120;2023-06-10T07:26:23;22.00;99.90
12911;DHT22;6523;49.758;6.120;2023-06-10T07:28:49;22.10;99.90
12911;DHT22;6523;49.758;6.120;2023-06-10T07:31:14;22.30;99.90
12911;DHT22;6523;49.758;6.120;2023-06-10T07:33:40;22.40;99.90
12911;DHT22;6523;49.758;6.120;2023-06-10T07:36:06;22.60;99.90
12911;DHT22;6523;49.758;6.120;2023-06-10T07:38:32;22.70;99.90
12911;DHT22;6523;49.758;6.120;2023-06-10T07:40:57;23.10;99.90
12911;DHT22;6523;49.758;6.120;2023-06-10T07:43:24;23.30;99.90
12911;DHT22;6523;49.758;6.120;2023-06-10T07:45:49;23.50;99.90
12911;DHT22;6523;49.758;6.120;2023-06-10T07:48:15;23.60;99.90
12911;DHT22;6523;49.758;6.120;2023-06-10T07:50:40;23.70;99.90
12911;DHT22;6523;49.758;6.120;2023-06-10T07:53:06;23.70;99.90
12911;DHT22;6523;49.758;6.120;2023-06-10T07:55:32;24.00;99.90
12911;DHT22;6523;49.758;6.120;2023-06-10T07:57:57;24.20;99.90
12911;DHT22;6523;49.758;6.120;2023-06-10T08:00:23;24.40;99.90
12911;DHT22;6523;49.758;6.120;2023-06-10T08:02:48;24.40;99.90
12911;DHT22;6523;49.758;6.120;2023-06-10T08:05:14;24.60;99.90
12911;DHT22;6523;49.758;6.120;2023-06-10T08:07:40;24.80;99.90
12911;DHT22;6523;49.758;6.120;2023-06-10T08:10:07;24.90;99.90
12911;DHT22;6523;49.758;6.120;2023-06-10T08:12:35;24.90;99.90
12911;DHT22;6523;49.758;6.120;2023-06-10T08:15:01;25.10;99.90
12911;DHT22;6523;49.758;6.120;2023-06-10T08:17:32;25.30;99.90
12911;DHT22;6523;49.758;6.120;2023-06-10T08:19:58;25.30;99.90
12911;DHT22;6523;49.758;6.120;2023-06-10T08:22:23;25.60;99.90
12911;DHT22;6523;49.758;6.120;2023-06-10T08:24:49;25.60;99.90
12911;DHT22;6523;49.758;6.120;2023-06-10T08:27:14;25.70;99.90
12911;DHT22;6523;49.758;6.120;2023-06-10T08:29:40;25.80;99.90
12911;DHT22;6523;49.758;6.120;2023-06-10T08:32:06;26.00;99.20
12911;DHT22;6523;49.758;6.120;2023-06-10T08:34:35;25.90;99.60
12911;DHT22;6523;49.758;6.120;2023-06-10T08:37:01;26.20;99.70
12911;DHT22;6523;49.758;6.120;2023-06-10T08:39:27;26.30;95.00
12911;DHT22;6523;49.758;6.120;2023-06-10T08:44:36;26.30;71.30
12911;DHT22;6523;49.758;6.120;2023-06-10T08:47:08;26.60;62.30
12911;DHT22;6523;49.758;6.120;2023-06-10T08:49:40;26.80;45.40
12911;DHT22;6523;49.758;6.120;2023-06-10T08:52:07;26.60;30.90
12911;DHT22;6523;49.758;6.120;2023-06-10T08:54:34;26.40;32.50
12911;DHT22;6523;49.758;6.120;2023-06-10T08:57:04;26.80;44.70
12911;DHT22;6523;49.758;6.120;2023-06-10T08:59:31;27.10;44.80
12911;DHT22;6523;49.758;6.120;2023-06-10T09:01:57;27.40;44.00
12911;DHT22;6523;49.758;6.120;2023-06-10T09:04:24;27.70;47.10
12911;DHT22;6523;49.758;6.120;2023-06-10T09:06:50;27.70;39.30
12911;DHT22;6523;49.758;6.120;2023-06-10T09:09:16;27.80;35.30
12911;DHT22;6523;49.758;6.120;2023-06-10T09:11:43;27.70;32.30
12911;DHT22;6523;49.758;6.120;2023-06-10T09:14:09;27.80;25.70
12911;DHT22;6523;49.758;6.120;2023-06-10T09:16:34;27.90;14.50
12911;DHT22;6523;49.758;6.120;2023-06-10T09:19:01;27.90;20.00
12911;DHT22;6523;49.758;6.120;2023-06-10T09:21:27;28.10;13.30
12911;DHT22;6523;49.758;6.120;2023-06-10T09:23:53;28.40;13.10
12911;DHT22;6523;49.758;6.120;2023-06-10T09:26:19;28.10;12.10
12911;DHT22;6523;49.758;6.120;2023-06-10T09:28:47;28.30;10.10
12911;DHT22;6523;49.758;6.120;2023-06-10T09:31:13;28.70;7.10
12911;DHT22;6523;49.758;6.120;2023-06-10T09:33:40;28.60;11.00
12911;DHT22;6523;49.758;6.120;2023-06-10T09:36:06;28.70;9.90
12911;DHT22;6523;49.758;6.120;2023-06-10T09:38:35;28.80;4.90
12911;DHT22;6523;49.758;6.120;2023-06-10T09:41:01;29.10;8.80
12911;DHT22;6523;49.758;6.120;2023-06-10T09:43:44;29.30;3.60
12911;DHT22;6523;49.758;6.120;2023-06-10T09:46:15;29.30;1.00
12911;DHT22;6523;49.758;6.120;2023-06-10T09:48:43;29.00;1.00
12911;DHT22;6523;49.758;6.120;2023-06-10T09:51:13;29.20;1.00
12911;DHT22;6523;49.758;6.120;2023-06-10T09:53:38;29.10;1.00
12911;DHT22;6523;49.758;6.120;2023-06-10T09:56:04;29.20;1.00
12911;DHT22;6523;49.758;6.120;2023-06-10T09:58:38;29.20;1.00
12911;DHT22;6523;49.758;6.120;2023-06-10T10:01:14;29.40;1.00
12911;DHT22;6523;49.758;6.120;2023-06-10T10:03:47;28.80;1.00
12911;DHT22;6523;49.758;6.120;2023-06-10T10:06:16;29.30;1.00
12911;DHT22;6523;49.758;6.120;2023-06-10T10:08:42;29.30;1.00
12911;DHT22;6523;49.758;6.120;2023-06-10T10:11:08;29.60;1.00
12911;DHT22;6523;49.758;6.120;2023-06-10T10:13:34;29.80;1.00
12911;DHT22;6523;49.758;6.120;2023-06-10T10:16:22;29.70;1.00
12911;DHT22;6523;49.758;6.120;2023-06-10T10:18:58;30.10;1.00
12911;DHT22;6523;49.758;6.120;2023-06-10T10:21:33;30.60;1.00
12911;DHT22;6523;49.758;6.120;2023-06-10T10:24:18;30.40;1.00
12911;DHT22;6523;49.758;6.120;2023-06-10T10:26:48;30.70;1.00
12911;DHT22;6523;49.758;6.120;2023-06-10T10:29:33;30.00;1.00
12911;DHT22;6523;49.758;6.120;2023-06-10T10:32:01;30.10;1.00
12911;DHT22;6523;49.758;6.120;2023-06-10T10:34:33;30.30;1.00
12911;DHT22;6523;49.758;6.120;2023-06-10T10:37:00;29.80;1.00
12911;DHT22;6523;49.758;6.120;2023-06-10T10:39:26;30.00;1.00
12911;DHT22;6523;49.758;6.120;2023-06-10T10:41:54;30.20;1.00
12911;DHT22;6523;49.758;6.120;2023-06-10T10:44:20;30.10;1.00
12911;DHT22;6523;49.758;6.120;2023-06-10T10:46:50;29.90;1.00
12911;DHT22;6523;49.758;6.120;2023-06-10T10:49:17;29.30;1.00
12911;DHT22;6523;49.758;6.120;2023-06-10T10:52:02;30.30;1.00
12911;DHT22;6523;49.758;6.120;2023-06-10T10:54:32;30.60;1.00
12911;DHT22;6523;49.758;6.120;2023-06-10T10:57:30;31.00;1.00
12911;DHT22;6523;49.758;6.120;2023-06-10T10:59:57;31.60;1.00
12911;DHT22;6523;49.758;6.120;2023-06-10T11:02:44;31.90;1.00
12911;DHT22;6523;49.758;6.120;2023-06-10T11:05:14;31.50;1.00
12911;DHT22;6523;49.758;6.120;2023-06-10T11:07:40;30.90;1.00
12911;DHT22;6523;49.758;6.120;2023-06-10T11:10:10;29.20;1.00
12911;DHT22;6523;49.758;6.120;2023-06-10T11:12:50;29.20;1.00
12911;DHT22;6523;49.758;6.120;2023-06-10T11:15:25;30.60;1.00
12911;DHT22;6523;49.758;6.120;2023-06-10T11:20:58;31.50;1.00
12911;DHT22;6523;49.758;6.120;2023-06-10T11:26:11;31.30;1.00
12911;DHT22;6523;49.758;6.120;2023-06-10T11:31:25;31.40;1.00
12911;DHT22;6523;49.758;6.120;2023-06-10T11:33:55;31.80;1.00
12911;DHT22;6523;49.758;6.120;2023-06-10T11:36:22;31.30;1.00
12911;DHT22;6523;49.758;6.120;2023-06-10T11:38:49;31.40;1.00
12911;DHT22;6523;49.758;6.120;2023-06-10T11:41:15;31.40;1.00
12911;DHT22;6523;49.758;6.120;2023-06-10T11:43:43;31.80;1.00
12911;DHT22;6523;49.758;6.120;2023-06-10T11:46:09;32.40;1.00
12911;DHT22;6523;49.758;6.120;2023-06-10T11:48:35;31.90;1.00
12911;DHT22;6523;49.758;6.120;2023-06-10T11:51:00;32.30;1.00
12911;DHT22;6523;49.758;6.120;2023-06-10T11:53:26;32.30;1.00
12911;DHT22;6523;49.758;6.120;2023-06-10T11:55:51;31.90;1.00
12911;DHT22;6523;49.758;6.120;2023-06-10T11:58:19;31.90;1.00
12911;DHT22;6523;49.758;6.120;2023-06-10T12:00:50;32.00;1.00
12911;DHT22;6523;49.758;6.120;2023-06-10T12:03:17;32.10;1.00
12911;DHT22;6523;49.758;6.120;2023-06-10T12:05:59;32.50;1.00
12911;DHT22;6523;49.758;6.120;2023-06-10T12:08:26;32.30;1.00
12911;DHT22;6523;49.758;6.120;2023-06-10T12:10:52;32.00;1.00
12911;DHT22;6523;49.758;6.120;2023-06-10T12:13:17;32.70;1.00
12911;DHT22;6523;49.758;6.120;2023-06-10T12:15:44;32.70;1.00
12911;DHT22;6523;49.758;6.120;2023-06-10T12:18:23;32.70;1.00
12911;DHT22;6523;49.758;6.120;2023-06-10T12:20:49;32.60;1.00
12911;DHT22;6523;49.758;6.120;2023-06-10T12:23:17;31.60;1.00
12911;DHT22;6523;49.758;6.120;2023-06-10T12:25:54;30.90;1.00
12911;DHT22;6523;49.758;6.120;2023-06-10T12:28:23;31.60;1.00
12911;DHT22;6523;49.758;6.120;2023-06-10T12:30:49;31.20;1.00
12911;DHT22;6523;49.758;6.120;2023-06-10T12:33:21;32.10;1.00
12911;DHT22;6523;49.758;6.120;2023-06-10T12:35:52;30.80;1.00
12911;DHT22;6523;49.758;6.120;2023-06-10T12:38:25;31.40;1.00
12911;DHT22;6523;49.758;6.120;2023-06-10T12:40:53;32.40;1.00
12911;DHT22;6523;49.758;6.120;2023-06-10T12:43:22;32.70;1.00
12911;DHT22;6523;49.758;6.120;2023-06-10T12:45:50;32.40;1.00
12911;DHT22;6523;49.758;6.120;2023-06-10T12:48:23;31.80;1.00
12911;DHT22;6523;49.758;6.120;2023-06-10T12:50:56;32.80;1.00
12911;DHT22;6523;49.758;6.120;2023-06-10T12:53:23;33.20;1.00
12911;DHT22;6523;49.758;6.120;2023-06-10T12:55:49;33.20;1.00
12911;DHT22;6523;49.758;6.120;2023-06-10T12:58:15;33.60;1.00
12911;DHT22;6523;49.758;6.120;2023-06-10T13:00:41;33.30;1.00
12911;DHT22;6523;49.758;6.120;2023-06-10T13:03:08;33.20;1.00
12911;DHT22;6523;49.758;6.120;2023-06-10T13:05:38;33.40;1.00
12911;DHT22;6523;49.758;6.120;2023-06-10T13:08:08;33.30;1.00
12911;DHT22;6523;49.758;6.120;2023-06-10T13:10:36;33.50;1.00
12911;DHT22;6523;49.758;6.120;2023-06-10T13:13:02;33.90;1.00
12911;DHT22;6523;49.758;6.120;2023-06-10T13:15:31;34.00;1.00
12911;DHT22;6523;49.758;6.120;2023-06-10T13:17:57;33.90;1.00
12911;DHT22;6523;49.758;6.120;2023-06-10T13:20:23;33.70;1.00
12911;DHT22;6523;49.758;6.120;2023-06-10T13:22:49;33.40;1.00
12911;DHT22;6523;49.758;6.120;2023-06-10T13:25:15;33.20;1.00
12911;DHT22;6523;49.758;6.120;2023-06-10T13:27:41;33.30;1.00
12911;DHT22;6523;49.758;6.120;2023-06-10T13:30:09;33.40;1.00
12911;DHT22;6523;49.758;6.120;2023-06-10T13:32:35;33.20;1.00
12911;DHT22;6523;49.758;6.120;2023-06-10T13:35:01;33.00;1.00
12911;DHT22;6523;49.758;6.120;2023-06-10T13:37:27;33.70;1.00
12911;DHT22;6523;49.758;6.120;2023-06-10T13:39:52;33.70;1.00
12911;DHT22;6523;49.758;6.120;2023-06-10T13:42:18;33.70;1.00
12911;DHT22;6523;49.758;6.120;2023-06-10T13:44:44;33.30;1.00
12911;DHT22;6523;49.758;6.120;2023-06-10T13:47:09;33.00;1.00
12911;DHT22;6523;49.758;6.120;2023-06-10T13:49:35;33.40;1.00
12911;DHT22;6523;49.758;6.120;2023-06-10T13:52:01;33.40;1.00
12911;DHT22;6523;49.758;6.120;2023-06-10T13:54:26;33.40;1.00
12911;DHT22;6523;49.758;6.120;2023-06-10T13:56:52;33.60;1.00
12911;DHT22;6523;49.758;6.120;2023-06-10T13:59:19;32.00;1.00
12911;DHT22;6523;49.758;6.120;2023-06-10T14:01:45;30.20;1.00
12911;DHT22;6523;49.758;6.120;2023-06-10T14:04:11;29.90;1.00
12911;DHT22;6523;49.758;6.120;2023-06-10T14:06:36;32.10;1.00
12911;DHT22;6523;49.758;6.120;2023-06-10T14:09:02;32.70;1.00
12911;DHT22;6523;49.758;6.120;2023-06-10T14:11:27;33.30;1.00
12911;DHT22;6523;49.758;6.120;2023-06-10T14:13:53;33.20;1.00
12911;DHT22;6523;49.758;6.120;2023-06-10T14:16:21;33.20;1.00
12911;DHT22;6523;49.758;6.120;2023-06-10T14:18:47;33.20;1.00
12911;DHT22;6523;49.758;6.120;2023-06-10T14:21:12;33.30;1.00
12911;DHT22;6523;49.758;6.120;2023-06-10T14:23:38;33.40;1.00
12911;DHT22;6523;49.758;6.120;2023-06-10T14:26:04;33.80;1.00
12911;DHT22;6523;49.758;6.120;2023-06-10T14:28:31;33.70;1.00
12911;DHT22;6523;49.758;6.120;2023-06-10T14:30:57;33.50;1.00
12911;DHT22;6523;49.758;6.120;2023-06-10T14:33:23;34.00;1.00
12911;DHT22;6523;49.758;6.120;2023-06-10T14:35:48;34.20;1.00
12911;DHT22;6523;49.758;6.120;2023-06-10T14:38:14;34.10;1.00
12911;DHT22;6523;49.758;6.120;2023-06-10T14:40:39;33.90;1.00
12911;DHT22;6523;49.758;6.120;2023-06-10T14:43:05;34.00;1.00
12911;DHT22;6523;49.758;6.120;2023-06-10T14:45:36;33.60;1.00
12911;DHT22;6523;49.758;6.120;2023-06-10T14:48:02;32.30;1.00
12911;DHT22;6523;49.758;6.120;2023-06-10T14:50:27;31.60;1.00
12911;DHT22;6523;49.758;6.120;2023-06-10T14:52:53;33.10;1.00
12911;DHT22;6523;49.758;6.120;2023-06-10T14:55:18;33.30;1.00
12911;DHT22;6523;49.758;6.120;2023-06-10T14:57:45;33.40;1.00
12911;DHT22;6523;49.758;6.120;2023-06-10T15:00:11;33.50;1.00
12911;DHT22;6523;49.758;6.120;2023-06-10T15:02:40;33.30;1.00
12911;DHT22;6523;49.758;6.120;2023-06-10T15:05:06;33.00;1.00
12911;DHT22;6523;49.758;6.120;2023-06-10T15:07:32;32.90;1.00
12911;DHT22;6523;49.758;6.120;2023-06-10T15:09:57;32.90;1.00
12911;DHT22;6523;49.758;6.120;2023-06-10T15:12:23;32.80;1.00
12911;DHT22;6523;49.758;6.120;2023-06-10T15:14:50;32.90;1.00
12911;DHT22;6523;49.758;6.120;2023-06-10T15:17:15;32.90;1.00
12911;DHT22;6523;49.758;6.120;2023-06-10T15:19:41;32.30;1.00
12911;DHT22;6523;49.758;6.120;2023-06-10T15:22:06;31.80;1.00
12911;DHT22;6523;49.758;6.120;2023-06-10T15:24:32;32.30;1.00
12911;DHT22;6523;49.758;6.120;2023-06-10T15:26:57;32.70;1.00
12911;DHT22;6523;49.758;6.120;2023-06-10T15:29:23;32.40;1.00
12911;DHT22;6523;49.758;6.120;2023-06-10T15:31:48;32.40;1.00
12911;DHT22;6523;49.758;6.120;2023-06-10T15:34:14;32.80;1.00
12911;DHT22;6523;49.758;6.120;2023-06-10T15:36:39;32.70;1.00
12911;DHT22;6523;49.758;6.120;2023-06-10T15:39:06;32.70;1.00
12911;DHT22;6523;49.758;6.120;2023-06-10T15:41:33;32.80;1.00
12911;DHT22;6523;49.758;6.120;2023-06-10T15:43:59;32.80;1.00
12911;DHT22;6523;49.758;6.120;2023-06-10T15:46:26;33.20;1.00
12911;DHT22;6523;49.758;6.120;2023-06-10T15:48:52;33.40;1.00
12911;DHT22;6523;49.758;6.120;2023-06-10T15:51:19;32.80;1.00
12911;DHT22;6523;49.758;6.120;2023-06-10T15:53:45;32.90;1.00
12911;DHT22;6523;49.758;6.120;2023-06-10T15:56:12;32.80;1.00
12911;DHT22;6523;49.758;6.120;2023-06-10T15:58:38;32.90;1.00
12911;DHT22;6523;49.758;6.120;2023-06-10T16:01:04;32.70;1.00
12911;DHT22;6523;49.758;6.120;2023-06-10T16:03:30;33.10;1.00
12911;DHT22;6523;49.758;6.120;2023-06-10T16:05:55;32.30;1.00
12911;DHT22;6523;49.758;6.120;2023-06-10T16:08:21;33.10;1.00
12911;DHT22;6523;49.758;6.120;2023-06-10T16:10:46;33.20;1.00